RAAF Base Pearce
YPEA : now visible

Aeroporto :











RITROVATECI SU...

 
LOGIN :

Iscrizione | Disclaimer

   EN    FR    IT 

 









Sommario :    VFR   VFR Marginale   IFR   IFR Intensivo   IFR Molto Intensivo
Visibilità : 
Base nubi : 
>= 8 km
>= 3000ft
5 / 8 km
1000 / 3000 ft
1500m / 5 km
500 / 1000 ft
800 / 1500m
200 / 500 ft
< 800m
< 200 ft
Simboli :   Temporali  Nebbia  Neve Forte  Precipitazioni Forti  Vento > 20 kt






- Altitudine del aeroporto : 149 ft


YPEA - RAAF Base Pearce

ULTIMO METAR :
  • 252000Z AUTO 08004KT 9999 // SCT035 BKN044 BKN052 11/10 Q1018

METARs OBSOLETI :
  • 251947Z AUTO 08004KT 9999 // SCT020 SCT032 BKN046 11/10 Q1018
  • 251930Z AUTO 06001KT 2700 -SHRA SCT017 BKN022 BKN030 11/10 Q1017
  • 251900Z AUTO 01004KT 330V030 4700 -SHRA SCT019 SCT033 BKN039 11/10 Q1017
  • 251857Z AUTO 35005KT 330V030 6000 -SHRA SCT019 SCT033 BKN038 11/10 Q1018
  • 251830Z AUTO 32004KT 260V020 8000 -SHRA SCT015 BKN033 BKN042 11/09 Q1017
  • 251819Z AUTO 26003KT 9999 -SHRA BKN033 BKN040 OVC050 11/09 Q1017
  • 251806Z AUTO 00000KT 6000 -SHRA SCT033 BKN041 BKN050 11/09 Q1017
  • 251753Z AUTO 00000KT 9999 // SCT024 SCT033 BKN041 11/09 Q1017

TAF TAF YPEA
Valido dal 25 a 18 ore il 26 a 12 ore UTC


251616Z 2518/2612 04005KT 9999 -SHRA SCT020 BKN030 INTER 2518/2606 4000 SHRA SCT010 BKN015
FIR YMMM / Oceania



MetMap, La meteo Aeronautica in un colpo d'occhio ! - Copyright ORBIFLY Dicembre 2007 - Disclaimer

ORBIFLY MET'MAP TEAM :

Programmazione e sviluppo : Alexandra Zaïnal
Concezione : Baudouin d'Aumeries
Aiuto per la programmazione : Marc-Olivier Méhu
Supporto tecnico e logistico : Manuel Goepfert
Aiuto per la traduzione : Arnaldo La Scala

Contatto : metmap@orbifly.com




FONTI E CREDITI :

   NOAA       Earth
Advisory